Time;durP1;ratioP1;P1;durP2;ratioP2;P2;SDS_P1;SDS_P2;PMS_P1;PMS_P2;Temp;Humidity;BMP_temperature;BMP_pressure;BME280_temperature;BME280_humidity;BME280_pressure;Samples;Min_cycle;Max_cycle;Signal;HPM_P1;HPM_P2
2021/05/15 00:01:52;;;;;;;26.17;12.90;;;9.60;99.90;;;;;;5036156;28;20593;-63
2021/05/15 00:04:18;;;;;;;26.17;13.10;;;9.70;99.90;;;;;;5036162;28;20610;-61
2021/05/15 00:06:44;;;;;;;24.60;12.20;;;9.90;99.90;;;;;;5036636;28;20181;-61
2021/05/15 00:09:09;;;;;;;22.37;12.80;;;10.00;99.90;;;;;;5035916;28;20181;-60
2021/05/15 00:11:35;;;;;;;26.97;14.33;;;10.10;99.90;;;;;;5036317;28;20212;-61
2021/05/15 00:14:02;;;;;;;23.90;12.57;;;10.20;99.90;;;;;;5035831;28;20264;-61
2021/05/15 00:16:28;;;;;;;22.05;12.55;;;10.20;99.90;;;;;;5035931;28;20431;-61
2021/05/15 00:18:53;;;;;;;19.70;11.33;;;10.30;99.90;;;;;;5051599;28;20288;-61
2021/05/15 00:21:19;;;;;;;20.50;12.30;;;10.20;99.90;;;;;;5036152;28;20182;-63
2021/05/15 00:23:45;;;;;;;20.80;12.73;;;10.30;99.90;;;;;;5035713;28;20221;-63
2021/05/15 00:26:12;;;;;;;22.70;12.93;;;10.20;99.90;;;;;;5034304;28;20239;-63
2021/05/15 00:28:38;;;;;;;23.08;13.52;;;10.40;99.90;;;;;;5035275;28;20188;-63
2021/05/15 00:31:04;;;;;;;24.00;14.77;;;10.40;99.90;;;;;;5035258;28;20510;-63
2021/05/15 00:33:29;;;;;;;27.07;14.70;;;10.30;99.90;;;;;;5034962;28;20476;-63
2021/05/15 00:35:55;;;;;;;23.60;13.37;;;10.40;99.90;;;;;;5035066;28;20195;-63
2021/05/15 00:38:20;;;;;;;21.77;13.03;;;10.40;99.90;;;;;;5034876;28;20247;-64
2021/05/15 00:40:46;;;;;;;23.13;12.97;;;10.50;99.90;;;;;;5034874;28;20192;-63
2021/05/15 00:43:12;;;;;;;24.93;13.17;;;10.50;99.90;;;;;;5034707;28;20230;-63
2021/05/15 00:45:38;;;;;;;24.17;13.00;;;10.50;99.90;;;;;;5034765;28;20699;-63
2021/05/15 00:48:04;;;;;;;23.00;13.13;;;10.60;99.90;;;;;;5034980;28;20178;-63
2021/05/15 00:50:30;;;;;;;20.50;13.52;;;10.60;99.90;;;;;;5034776;28;20181;-63
2021/05/15 00:52:57;;;;;;;22.30;13.77;;;10.60;99.90;;;;;;5034727;28;20315;-63
2021/05/15 00:55:23;;;;;;;20.38;11.43;;;10.50;99.90;;;;;;5034430;28;20176;-63
2021/05/15 00:57:48;;;;;;;24.73;13.73;;;10.60;99.90;;;;;;5034721;28;20174;-63
2021/05/15 01:00:15;;;;;;;30.27;14.53;;;10.80;99.90;;;;;;5033935;28;20499;-63
2021/05/15 01:02:41;;;;;;;22.73;13.07;;;10.90;99.90;;;;;;5034667;28;20209;-63
2021/05/15 01:05:13;;;;;;;27.58;13.10;;;10.90;99.90;;;;;;5034300;28;20204;-63
2021/05/15 01:07:41;;;;;;;27.70;12.80;;;10.80;99.90;;;;;;5034499;28;20178;-63
2021/05/15 01:10:07;;;;;;;23.67;13.63;;;10.90;99.90;;;;;;5034497;28;20227;-63
2021/05/15 01:12:33;;;;;;;22.20;13.03;;;10.80;99.90;;;;;;5034644;28;20186;-63
2021/05/15 01:14:59;;;;;;;26.97;13.00;;;10.90;99.90;;;;;;5034152;28;20458;-64
2021/05/15 01:17:25;;;;;;;23.42;13.32;;;11.00;99.90;;;;;;5034541;28;20181;-63
2021/05/15 01:19:50;;;;;;;21.97;13.10;;;11.00;99.90;;;;;;5034244;28;20193;-63
2021/05/15 01:22:16;;;;;;;26.97;13.20;;;11.00;99.90;;;;;;5034231;28;20217;-63
2021/05/15 01:24:44;;;;;;;20.25;13.35;;;11.10;99.90;;;;;;5033878;28;20181;-63
2021/05/15 01:27:13;;;;;;;23.83;13.52;;;11.20;99.90;;;;;;5034369;28;20548;-63
2021/05/15 01:29:40;;;;;;;22.45;13.52;;;11.20;99.90;;;;;;5034231;28;20174;-63
2021/05/15 01:32:06;;;;;;;26.00;13.07;;;11.20;99.90;;;;;;5034401;28;20251;-63
2021/05/15 01:34:32;;;;;;;25.13;11.90;;;11.10;99.90;;;;;;5033774;28;20177;-63
2021/05/15 01:36:57;;;;;;;24.03;14.10;;;11.20;99.90;;;;;;5034320;28;20242;-63
2021/05/15 01:39:23;;;;;;;24.87;13.37;;;11.20;99.90;;;;;;5033126;28;20190;-63
2021/05/15 01:41:49;;;;;;;26.20;14.30;;;11.20;99.90;;;;;;5033987;28;20205;-63
2021/05/15 01:44:16;;;;;;;23.67;14.77;;;11.40;99.90;;;;;;5034034;28;20510;-63
2021/05/15 01:46:42;;;;;;;23.40;14.02;;;11.50;99.90;;;;;;5034209;28;20166;-63
2021/05/15 01:49:08;;;;;;;27.37;13.83;;;11.50;99.90;;;;;;5034265;28;20231;-63
2021/05/15 01:51:33;;;;;;;21.07;13.20;;;11.50;99.90;;;;;;5034091;28;20432;-63
2021/05/15 01:53:59;;;;;;;24.80;13.03;;;11.50;99.90;;;;;;5034809;28;20448;-63
2021/05/15 01:56:29;;;;;;;22.45;13.52;;;11.50;99.90;;;;;;5034845;28;20482;-63
2021/05/15 01:58:56;;;;;;;22.45;13.30;;;11.30;99.90;;;;;;5035365;28;20178;-63
2021/05/15 02:01:23;;;;;;;29.73;14.13;;;11.20;99.90;;;;;;5036712;28;20272;-63
2021/05/15 02:03:49;;;;;;;22.90;13.68;;;11.20;99.90;;;;;;5035524;28;20189;-63
2021/05/15 02:06:16;;;;;;;29.57;14.30;;;11.00;99.90;;;;;;5035581;28;20170;-63
2021/05/15 02:08:45;;;;;;;21.67;13.30;;;11.00;99.90;;;;;;5035514;28;20454;-63
2021/05/15 02:11:11;;;;;;;22.45;13.45;;;10.90;99.90;;;;;;5036259;28;20197;-64
2021/05/15 02:13:36;;;;;;;20.95;12.15;;;10.90;99.90;;;;;;5036894;28;20189;-63
2021/05/15 02:16:03;;;;;;;21.97;13.50;;;11.10;99.90;;;;;;5037784;28;20239;-64
2021/05/15 02:18:29;;;;;;;25.00;13.13;;;11.20;99.90;;;;;;5037895;28;20688;-64
2021/05/15 02:20:55;;;;;;;20.90;13.53;;;11.10;99.90;;;;;;5035147;28;20186;-64
2021/05/15 02:23:21;;;;;;;23.13;14.35;;;11.30;99.90;;;;;;5034675;28;20503;-64
2021/05/15 02:25:47;;;;;;;27.10;13.57;;;11.50;99.90;;;;;;5035866;28;20242;-63
2021/05/15 02:28:15;;;;;;;26.58;14.30;;;11.40;99.90;;;;;;5036799;28;20177;-64
2021/05/15 02:30:41;;;;;;;24.85;13.15;;;11.50;99.90;;;;;;5035720;28;20227;-64
2021/05/15 02:33:10;;;;;;;24.98;14.60;;;11.40;99.90;;;;;;5035065;28;20359;-64
2021/05/15 02:35:36;;;;;;;23.42;13.75;;;11.30;99.90;;;;;;5034558;28;20186;-64
2021/05/15 02:38:04;;;;;;;22.97;13.33;;;11.40;99.90;;;;;;5034293;28;20181;-64
2021/05/15 02:40:29;;;;;;;20.13;11.82;;;11.50;99.90;;;;;;5033440;28;20428;-64
2021/05/15 02:42:55;;;;;;;24.87;14.47;;;11.40;99.90;;;;;;5033544;28;20238;-64
2021/05/15 02:45:23;;;;;;;24.30;13.70;;;11.30;99.90;;;;;;5032546;28;20416;-64
2021/05/15 02:47:50;;;;;;;25.70;14.23;;;11.30;99.90;;;;;;5033065;28;20593;-64
2021/05/15 02:50:17;;;;;;;25.00;13.80;;;11.30;99.90;;;;;;5032693;28;20208;-64
2021/05/15 02:52:43;;;;;;;21.80;12.63;;;11.00;99.90;;;;;;5032538;28;20626;-64
2021/05/15 02:55:13;;;;;;;20.30;13.93;;;11.10;99.90;;;;;;5032126;28;20274;-64
2021/05/15 02:57:40;;;;;;;21.40;12.70;;;11.10;99.90;;;;;;5032614;28;20177;-63
2021/05/15 03:00:08;;;;;;;24.08;13.80;;;11.10;99.90;;;;;;5032711;28;20208;-64
2021/05/15 03:02:34;;;;;;;21.95;13.95;;;11.20;99.90;;;;;;5032475;28;20309;-64
2021/05/15 03:05:00;;;;;;;25.65;14.32;;;11.10;99.90;;;;;;5032151;28;20213;-64
2021/05/15 03:07:25;;;;;;;26.70;14.13;;;11.00;99.90;;;;;;5032451;28;20491;-64
2021/05/15 03:09:51;;;;;;;21.40;12.97;;;11.00;99.90;;;;;;5032518;28;20435;-64
2021/05/15 03:12:17;;;;;;;22.60;14.07;;;11.20;99.90;;;;;;5032607;28;20217;-64
2021/05/15 03:14:43;;;;;;;22.37;13.00;;;11.30;99.90;;;;;;5032461;28;20239;-64
2021/05/15 03:17:10;;;;;;;21.47;13.80;;;11.40;99.90;;;;;;5032623;28;20186;-64
2021/05/15 03:19:36;;;;;;;19.92;12.57;;;11.40;99.90;;;;;;5032501;28;20208;-64
2021/05/15 03:22:02;;;;;;;26.77;15.03;;;11.40;99.90;;;;;;5033081;28;20286;-64
2021/05/15 03:24:27;;;;;;;27.80;15.37;;;11.20;99.90;;;;;;5035882;28;20848;-64
2021/05/15 03:26:53;;;;;;;24.20;15.30;;;11.20;99.90;;;;;;5052051;28;20431;-64
2021/05/15 03:29:18;;;;;;;26.43;15.00;;;11.30;99.90;;;;;;5036549;28;20183;-64
2021/05/15 03:31:44;;;;;;;21.63;13.67;;;11.20;99.90;;;;;;5036231;28;20243;-64
2021/05/15 03:34:10;;;;;;;23.27;12.43;;;11.40;99.90;;;;;;5035729;28;20547;-65
2021/05/15 03:36:36;;;;;;;28.77;14.50;;;11.40;99.90;;;;;;5036259;28;20189;-65
2021/05/15 03:39:03;;;;;;;24.35;13.40;;;11.60;99.90;;;;;;5036234;28;20185;-65
2021/05/15 03:41:28;;;;;;;24.23;12.82;;;11.50;99.90;;;;;;5034410;28;20181;-65
2021/05/15 03:43:54;;;;;;;26.53;13.80;;;11.10;99.90;;;;;;5035368;28;20280;-65
2021/05/15 03:46:22;;;;;;;19.13;12.73;;;11.40;99.90;;;;;;5035866;28;20584;-65
2021/05/15 03:48:48;;;;;;;22.95;11.85;;;11.40;99.90;;;;;;5036052;28;20599;-65
2021/05/15 03:51:17;;;;;;;21.60;13.00;;;11.40;99.90;;;;;;5035882;28;20182;-65
2021/05/15 03:53:42;;;;;;;21.08;13.00;;;11.50;99.90;;;;;;5036080;28;20182;-65
2021/05/15 03:56:08;;;;;;;22.90;13.63;;;11.60;90.60;;;;;;5037177;28;20188;-65
2021/05/15 03:58:34;;;;;;;22.93;14.60;;;11.50;66.70;;;;;;5036706;28;20939;-65
2021/05/15 04:00:59;;;;;;;24.10;11.60;;;11.40;54.20;;;;;;5038386;28;20438;-65
2021/05/15 04:03:25;;;;;;;24.70;13.50;;;11.30;75.20;;;;;;5038204;28;20213;-65
2021/05/15 04:05:51;;;;;;;20.57;11.90;;;11.30;98.70;;;;;;5037008;28;20188;-65
2021/05/15 04:08:17;;;;;;;19.10;13.37;;;11.30;99.90;;;;;;5038221;28;20576;-61
2021/05/15 04:10:43;;;;;;;18.73;13.30;;;11.40;99.90;;;;;;5037276;28;20205;-61
2021/05/15 04:15:50;;;;;;;21.25;12.35;;;11.80;99.90;;;;;;5036182;28;20205;-60
2021/05/15 04:18:16;;;;;;;21.02;13.13;;;11.40;35.70;;;;;;5035768;28;20188;-60
2021/05/15 04:20:44;;;;;;;21.33;11.80;;;11.40;99.90;;;;;;5039652;28;20256;-60
2021/05/15 04:23:12;;;;;;;21.75;12.63;;;11.50;92.60;;;;;;5043795;28;20597;-61
2021/05/15 04:25:38;;;;;;;23.75;11.60;;;11.60;91.60;;;;;;5039246;28;20629;-65
2021/05/15 04:28:06;;;;;;;20.08;12.82;;;11.50;85.80;;;;;;5038075;28;20611;-65
2021/05/15 04:30:33;;;;;;;20.05;13.10;;;11.70;84.30;;;;;;5036017;28;20516;-65
2021/05/15 04:33:00;;;;;;;19.55;11.75;;;11.50;26.50;;;;;;5034841;28;20326;-64
2021/05/15 04:35:26;;;;;;;20.42;12.30;;;11.50;35.10;;;;;;5033604;28;20181;-64
2021/05/15 04:37:52;;;;;;;19.13;13.57;;;11.60;49.70;;;;;;5034985;28;20485;-65
2021/05/15 04:40:18;;;;;;;24.57;11.67;;;11.90;51.20;;;;;;5035144;28;20192;-65
2021/05/15 04:42:43;;;;;;;16.67;11.50;;;12.20;7.20;;;;;;5050579;28;20638;-65
2021/05/15 04:45:12;;;;;;;23.87;13.83;;;12.00;1.00;;;;;;5034114;28;20661;-64
2021/05/15 04:47:39;;;;;;;24.42;13.30;;;11.90;1.00;;;;;;5034660;28;20189;-64
2021/05/15 04:50:07;;;;;;;17.67;11.48;;;11.90;1.00;;;;;;5034791;28;20178;-66
2021/05/15 04:52:36;;;;;;;20.92;12.23;;;12.20;1.00;;;;;;5035126;28;20273;-60
2021/05/15 04:55:02;;;;;;;17.05;11.38;;;12.20;1.00;;;;;;5034189;28;20189;-60
2021/05/15 04:57:27;;;;;;;20.52;12.75;;;12.20;1.00;;;;;;5035662;28;20264;-60
2021/05/15 04:59:53;;;;;;;17.40;11.90;;;12.20;1.00;;;;;;5034636;28;20604;-61
2021/05/15 05:02:19;;;;;;;18.97;11.23;;;12.10;1.00;;;;;;5034516;28;20216;-61
2021/05/15 05:04:44;;;;;;;18.67;12.47;;;12.20;1.00;;;;;;5034197;28;20243;-61
2021/05/15 05:07:10;;;;;;;21.53;13.07;;;12.30;1.00;;;;;;5034737;28;20170;-61
2021/05/15 05:09:35;;;;;;;17.53;11.23;;;12.40;1.00;;;;;;5034462;28;20519;-61
2021/05/15 05:12:01;;;;;;;21.20;12.73;;;12.00;1.00;;;;;;5034368;28;20194;-61
2021/05/15 05:14:26;;;;;;;20.87;12.10;;;11.90;1.00;;;;;;5033747;28;20585;-61
2021/05/15 05:16:55;;;;;;;17.87;11.80;;;12.00;1.00;;;;;;5034311;28;20181;-61
2021/05/15 05:19:25;;;;;;;19.85;11.70;;;12.10;1.00;;;;;;5035991;28;20162;-65
2021/05/15 05:21:51;;;;;;;28.27;12.27;;;12.20;1.00;;;;;;5034127;28;20211;-65
2021/05/15 05:24:17;;;;;;;20.08;11.90;;;12.20;1.00;;;;;;5034399;28;20268;-63
2021/05/15 05:26:43;;;;;;;18.92;11.35;;;12.30;1.00;;;;;;5034457;28;20173;-64
2021/05/15 05:29:09;;;;;;;18.77;11.47;;;12.30;1.00;;;;;;5034175;28;20235;-62
2021/05/15 05:31:36;;;;;;;21.30;12.60;;;12.40;1.00;;;;;;5033636;28;20610;-62
2021/05/15 05:34:03;;;;;;;20.08;11.85;;;12.30;1.00;;;;;;5033315;28;20587;-62
2021/05/15 05:36:28;;;;;;;16.50;9.93;;;12.30;1.00;;;;;;5034130;28;20524;-62
2021/05/15 05:38:54;;;;;;;16.93;11.30;;;12.20;1.00;;;;;;5034022;28;20179;-62
2021/05/15 05:41:20;;;;;;;19.13;9.70;;;12.00;1.00;;;;;;5033801;28;20479;-62
2021/05/15 05:43:46;;;;;;;23.67;12.32;;;11.70;1.00;;;;;;5033627;28;20224;-62
2021/05/15 05:46:12;;;;;;;16.40;10.67;;;11.50;1.00;;;;;;5035764;28;20232;-64
2021/05/15 05:48:37;;;;;;;16.90;10.40;;;11.50;1.00;;;;;;5033792;28;20177;-65
2021/05/15 05:51:03;;;;;;;19.57;11.23;;;11.80;1.00;;;;;;5033610;28;20182;-64
2021/05/15 05:53:29;;;;;;;20.80;10.67;;;12.00;1.00;;;;;;5033481;28;20177;-66
2021/05/15 05:55:55;;;;;;;18.97;10.40;;;12.10;1.00;;;;;;5032408;28;20439;-66
2021/05/15 05:58:20;;;;;;;21.37;10.70;;;12.00;1.00;;;;;;5033486;28;20754;-64
2021/05/15 06:00:46;;;;;;;22.07;11.70;;;11.80;1.00;;;;;;5033198;28;20189;-64
2021/05/15 06:03:11;;;;;;;20.70;10.20;;;11.60;1.00;;;;;;5032972;28;20670;-64
2021/05/15 06:05:37;;;;;;;18.27;9.87;;;11.70;1.00;;;;;;5032919;28;20185;-65
2021/05/15 06:08:10;;;;;;;21.13;11.00;;;11.70;1.00;;;;;;5033631;28;20216;-65
2021/05/15 06:10:37;;;;;;;28.00;11.00;;;11.80;1.00;;;;;;5033684;28;20687;-65
2021/05/15 06:13:04;;;;;;;18.73;11.00;;;11.80;1.00;;;;;;5033781;28;20515;-64
2021/05/15 06:15:30;;;;;;;20.75;11.45;;;11.50;1.00;;;;;;5033031;28;20175;-66
2021/05/15 06:17:55;;;;;;;18.17;10.70;;;11.70;1.00;;;;;;5033270;28;20188;-65
2021/05/15 06:20:21;;;;;;;17.53;10.83;;;11.90;1.00;;;;;;5033404;28;20186;-65
2021/05/15 06:22:47;;;;;;;17.97;10.53;;;12.40;1.00;;;;;;5032964;28;20270;-64
2021/05/15 06:25:12;;;;;;;25.47;11.77;;;12.60;1.00;;;;;;5031774;28;20428;-64
2021/05/15 06:27:38;;;;;;;20.63;11.40;;;13.10;1.00;;;;;;5033345;28;20182;-65
2021/05/15 06:30:07;;;;;;;19.00;10.87;;;13.40;99.90;;;;;;5033239;28;20428;-66
2021/05/15 06:32:32;;;;;;;19.65;12.27;;;13.10;99.90;;;;;;5033094;28;20628;-61
2021/05/15 06:34:58;;;;;;;17.40;10.77;;;12.70;1.00;;;;;;5032557;28;20181;-61
2021/05/15 06:37:23;;;;;;;18.13;10.93;;;12.80;1.00;;;;;;5033014;28;20630;-61
2021/05/15 06:39:49;;;;;;;17.60;10.53;;;13.00;99.90;;;;;;5033165;28;20185;-62
2021/05/15 06:42:15;;;;;;;21.93;11.03;;;12.60;99.90;;;;;;5035302;28;20213;-63
2021/05/15 06:44:40;;;;;;;16.97;11.60;;;12.80;1.00;;;;;;5032413;28;20498;-63
2021/05/15 06:47:06;;;;;;;21.80;11.60;;;12.90;99.90;;;;;;5032979;28;20192;-63
2021/05/15 06:49:32;;;;;;;21.20;11.53;;;12.40;1.00;;;;;;5032825;28;20231;-63
2021/05/15 06:51:57;;;;;;;19.40;10.40;;;12.50;1.00;;;;;;5032950;28;20203;-63
2021/05/15 06:54:24;;;;;;;17.60;10.87;;;12.80;1.00;;;;;;5031610;28;20617;-62
2021/05/15 06:56:53;;;;;;;14.02;9.15;;;13.00;99.90;;;;;;5033543;28;20185;-62
2021/05/15 06:59:18;;;;;;;19.25;11.35;;;13.30;99.90;;;;;;5036832;28;20182;-63
2021/05/15 07:01:45;;;;;;;22.20;11.80;;;13.20;1.00;;;;;;5036955;28;20328;-63
2021/05/15 07:04:10;;;;;;;19.17;11.43;;;12.70;99.90;;;;;;5036069;28;20661;-63
2021/05/15 07:06:36;;;;;;;20.40;12.20;;;12.60;99.90;;;;;;5052212;28;20198;-63
2021/05/15 07:09:02;;;;;;;19.93;12.17;;;13.00;99.90;;;;;;5036670;28;20182;-64
2021/05/15 07:11:28;;;;;;;18.85;11.38;;;13.60;99.90;;;;;;5036479;28;20648;-63
2021/05/15 07:13:53;;;;;;;21.00;11.00;;;14.30;1.00;;;;;;5035940;28;20189;-63
2021/05/15 07:16:19;;;;;;;20.57;12.07;;;14.30;99.90;;;;;;5035729;28;20177;-64
2021/05/15 07:18:44;;;;;;;20.67;12.13;;;14.90;1.00;;;;;;5036515;28;20185;-64
2021/05/15 07:21:10;;;;;;;22.63;12.57;;;14.80;99.90;;;;;;5036814;28;20626;-63
2021/05/15 07:23:36;;;;;;;17.87;11.73;;;14.50;1.00;;;;;;5036369;28;20251;-63
2021/05/15 07:26:01;;;;;;;18.10;9.80;;;14.60;8.70;;;;;;5036029;28;20242;-64
2021/05/15 07:28:27;;;;;;;24.13;11.60;;;14.80;1.00;;;;;;5036342;28;20626;-63
2021/05/15 07:30:52;;;;;;;15.70;10.70;;;14.70;99.90;;;;;;5036219;28;20205;-63
2021/05/15 07:33:18;;;;;;;13.87;9.93;;;14.50;99.90;;;;;;5036277;28;20256;-63
2021/05/15 07:35:43;;;;;;;19.40;10.27;;;14.30;1.00;;;;;;5035879;28;20192;-63
2021/05/15 07:38:09;;;;;;;17.90;11.47;;;14.60;1.00;;;;;;5035458;28;20240;-62
2021/05/15 07:40:35;;;;;;;17.63;10.30;;;14.90;1.00;;;;;;5036207;28;20592;-62
2021/05/15 07:43:04;;;;;;;21.80;11.87;;;15.20;51.60;;;;;;5036049;28;20217;-63
2021/05/15 07:45:30;;;;;;;16.17;10.57;;;15.40;99.90;;;;;;5035762;28;20178;-62
2021/05/15 07:47:56;;;;;;;18.23;12.00;;;14.90;99.90;;;;;;5036152;28;20270;-62
2021/05/15 07:50:25;;;;;;;22.38;12.05;;;14.50;99.90;;;;;;5035816;28;20186;-62
2021/05/15 07:52:50;;;;;;;18.98;11.20;;;15.00;99.90;;;;;;5035978;28;20196;-62
2021/05/15 07:55:16;;;;;;;18.83;11.23;;;15.10;1.00;;;;;;5035625;28;20287;-62
2021/05/15 07:57:41;;;;;;;21.47;13.27;;;15.30;99.90;;;;;;5036076;28;20186;-62
2021/05/15 08:00:07;;;;;;;17.23;11.83;;;15.50;1.00;;;;;;5035859;28;20193;-62
2021/05/15 08:02:34;;;;;;;18.80;11.75;;;15.70;1.00;;;;;;5035810;28;20205;-61
2021/05/15 08:05:00;;;;;;;21.40;12.50;;;15.50;1.00;;;;;;5034974;28;20625;-61
2021/05/15 08:07:26;;;;;;;19.73;11.95;;;14.40;99.90;;;;;;5035584;28;20188;-62
2021/05/15 08:09:55;;;;;;;20.43;11.63;;;14.50;1.00;;;;;;5044455;28;20185;-65
2021/05/15 08:12:20;;;;;;;18.88;10.77;;;14.70;99.90;;;;;;5055378;28;20254;-64
2021/05/15 08:14:46;;;;;;;19.00;12.83;;;14.70;1.00;;;;;;5054770;28;20184;-64
2021/05/15 08:17:11;;;;;;;20.13;11.30;;;14.90;1.00;;;;;;5073909;28;20248;-63
2021/05/15 08:19:37;;;;;;;22.17;14.10;;;15.40;99.90;;;;;;5054359;28;20218;-63
2021/05/15 08:22:02;;;;;;;17.33;12.13;;;15.60;1.00;;;;;;5039698;28;20599;-63
2021/05/15 08:24:28;;;;;;;17.97;11.60;;;15.40;1.00;;;;;;5055115;28;20174;-64
2021/05/15 08:26:55;;;;;;;20.67;11.97;;;15.10;60.60;;;;;;5055411;28;20189;-66
2021/05/15 08:29:22;;;;;;;23.00;15.10;;;14.80;1.00;;;;;;5054967;28;20212;-64
2021/05/15 08:31:48;;;;;;;21.83;12.75;;;15.30;1.00;;;;;;5054675;28;20177;-64
2021/05/15 08:34:14;;;;;;;20.53;12.60;;;15.50;15.50;;;;;;5054241;28;20266;-64
2021/05/15 08:36:40;;;;;;;19.27;12.47;;;15.60;1.00;;;;;;5054927;28;20172;-65
2021/05/15 08:39:06;;;;;;;18.50;11.50;;;15.70;8.50;;;;;;5054702;28;20293;-65
2021/05/15 08:41:32;;;;;;;21.15;11.13;;;15.50;99.90;;;;;;5054872;28;20959;-66
2021/05/15 08:44:01;;;;;;;24.08;14.05;;;15.80;1.00;;;;;;5052504;28;20208;-67
2021/05/15 08:46:29;;;;;;;23.50;12.93;;;16.10;99.90;;;;;;5054522;28;20606;-69
2021/05/15 08:49:05;;;;;;;20.10;11.80;;;15.70;1.00;;;;;;5054477;28;20665;-69
2021/05/15 08:51:32;;;;;;;21.98;12.40;;;15.70;1.00;;;;;;5054595;28;20181;-69
2021/05/15 08:53:59;;;;;;;21.77;13.37;;;16.10;1.00;;;;;;5052992;28;20239;-68
2021/05/15 08:56:26;;;;;;;22.63;12.27;;;16.50;99.90;;;;;;5054479;28;20506;-67
2021/05/15 08:58:52;;;;;;;19.45;11.90;;;16.80;99.90;;;;;;5053558;28;20435;-69
2021/05/15 09:01:18;;;;;;;22.43;12.07;;;16.40;1.00;;;;;;5054452;28;20257;-70
2021/05/15 09:03:44;;;;;;;17.33;11.38;;;16.40;1.00;;;;;;5054158;28;20243;-65
2021/05/15 09:06:10;;;;;;;19.57;12.87;;;16.60;99.90;;;;;;5054822;28;20172;-66
2021/05/15 09:08:37;;;;;;;14.27;9.90;;;16.80;99.90;;;;;;5054653;28;20453;-69
2021/05/15 09:11:04;;;;;;;16.38;10.65;;;17.10;99.90;;;;;;5054356;28;20793;-69
2021/05/15 09:13:30;;;;;;;18.87;11.63;;;17.40;1.00;;;;;;5054072;28;20347;-70
2021/05/15 09:16:04;;;;;;;18.97;11.07;;;17.60;1.00;;;;;;5054219;28;20521;-70
2021/05/15 09:18:35;;;;;;;16.80;11.07;;;17.50;1.00;;;;;;5054347;28;20427;-69
2021/05/15 09:21:04;;;;;;;17.43;10.57;;;17.60;1.00;;;;;;5053758;28;20506;-69
2021/05/15 09:23:36;;;;;;;18.77;11.10;;;17.60;99.90;;;;;;5052821;28;20835;-69
2021/05/15 09:26:09;;;;;;;17.27;10.40;;;17.70;1.00;;;;;;5053290;28;20434;-69
2021/05/15 09:28:38;;;;;;;23.23;13.50;;;17.70;1.00;;;;;;5053865;28;20419;-69
2021/05/15 09:31:23;;;;;;;19.00;10.80;;;17.50;99.90;;;;;;5054009;28;20864;-70
2021/05/15 09:33:52;;;;;;;20.07;12.00;;;17.30;1.00;;;;;;5053313;28;20880;-67
2021/05/15 09:36:24;;;;;;;20.70;11.93;;;17.40;99.90;;;;;;5054226;28;20427;-68
2021/05/15 09:39:16;;;;;;;20.20;12.07;;;17.10;1.00;;;;;;5054171;28;20438;-68
2021/05/15 09:41:53;;;;;;;23.03;12.40;;;17.20;1.00;;;;;;5051878;28;20447;-68
2021/05/15 09:44:33;;;;;;;15.35;10.70;;;17.20;1.00;;;;;;5035617;28;20434;-68
2021/05/15 09:46:59;;;;;;;22.30;12.10;;;17.50;1.00;;;;;;5053759;28;20184;-67
2021/05/15 09:49:29;;;;;;;17.70;11.00;;;17.80;1.00;;;;;;5053881;28;20415;-66
2021/05/15 09:52:01;;;;;;;18.40;12.47;;;17.60;1.00;;;;;;5053593;28;20480;-66
2021/05/15 09:54:32;;;;;;;16.40;12.07;;;17.30;1.00;;;;;;5052190;28;20439;-65
2021/05/15 09:56:58;;;;;;;17.40;11.90;;;17.20;1.00;;;;;;5053690;28;20532;-65
2021/05/15 09:59:30;;;;;;;19.77;11.77;;;17.10;1.00;;;;;;5053370;28;20469;-65
2021/05/15 10:01:58;;;;;;;18.63;11.63;;;17.30;1.00;;;;;;5053637;28;20251;-65
2021/05/15 10:04:25;;;;;;;17.20;11.60;;;17.60;1.00;;;;;;5053042;28;20419;-67
2021/05/15 10:06:51;;;;;;;23.50;14.20;;;17.80;1.00;;;;;;5053706;28;20446;-63
2021/05/15 10:09:30;;;;;;;19.50;12.30;;;18.00;99.90;;;;;;5053257;28;20888;-65
2021/05/15 10:11:56;;;;;;;18.70;11.47;;;18.00;99.90;;;;;;5053312;28;20491;-66
2021/05/15 10:14:22;;;;;;;17.33;10.47;;;17.90;1.00;;;;;;5051814;28;20513;-67
2021/05/15 10:16:48;;;;;;;17.07;10.43;;;17.80;1.00;;;;;;5053474;28;20264;-66
2021/05/15 10:19:15;;;;;;;17.47;9.90;;;17.40;1.00;;;;;;5052979;28;20522;-66
2021/05/15 10:21:41;;;;;;;17.80;10.93;;;17.60;1.00;;;;;;5053207;28;20742;-68
2021/05/15 10:24:23;;;;;;;15.57;10.93;;;17.80;1.00;;;;;;5053223;28;20430;-69
2021/05/15 10:27:05;;;;;;;24.77;11.37;;;17.20;1.00;;;;;;5054638;28;20226;-64
2021/05/15 10:29:54;;;;;;;15.33;11.10;;;17.00;1.00;;;;;;5053180;28;20501;-65
2021/05/15 10:32:26;;;;;;;16.47;10.20;;;16.70;1.00;;;;;;5053586;28;20435;-65
2021/05/15 10:35:05;;;;;;;17.90;10.83;;;17.00;99.90;;;;;;5053844;28;20441;-66
2021/05/15 10:37:39;;;;;;;17.10;10.70;;;17.20;1.00;;;;;;5057209;28;20528;-65
2021/05/15 10:40:17;;;;;;;13.50;9.83;;;17.60;1.00;;;;;;5055951;28;20426;-65
2021/05/15 10:42:42;;;;;;;21.70;10.27;;;17.80;99.90;;;;;;5056362;28;20465;-65
2021/05/15 10:45:09;;;;;;;17.70;9.63;;;17.60;99.90;;;;;;5056035;28;20423;-64
2021/05/15 10:47:44;;;;;;;14.60;9.43;;;17.20;99.90;;;;;;5056423;28;20191;-63
2021/05/15 10:50:22;;;;;;;13.30;9.63;;;17.70;1.00;;;;;;5050755;28;20442;-63
2021/05/15 10:52:50;;;;;;;18.17;11.40;;;18.60;99.90;;;;;;5054849;28;20496;-65
2021/05/15 10:55:32;;;;;;;16.30;10.67;;;19.20;99.90;;;;;;5055895;28;20469;-65
2021/05/15 10:58:12;;;;;;;18.33;9.93;;;19.10;99.90;;;;;;5055672;28;20427;-65
2021/05/15 11:00:38;;;;;;;13.63;9.63;;;19.30;99.90;;;;;;5034589;28;20766;-65
2021/05/15 11:03:04;;;;;;;12.30;9.00;;;19.80;69.10;;;;;;5053087;28;20475;-62
2021/05/15 11:05:41;;;;;;;11.97;9.30;;;20.10;1.00;;;;;;5052579;28;20485;-62
2021/05/15 11:08:19;;;;;;;16.73;10.30;;;20.60;1.00;;;;;;5053102;28;20607;-65
2021/05/15 11:10:45;;;;;;;14.10;8.90;;;20.10;1.00;;;;;;5051932;28;20450;-65
2021/05/15 11:13:13;;;;;;;22.10;11.27;;;19.90;1.00;;;;;;5052681;28;20495;-65
2021/05/15 11:15:42;;;;;;;14.53;10.13;;;19.90;1.00;;;;;;5052439;28;20169;-65
2021/05/15 11:18:08;;;;;;;17.70;10.80;;;19.40;24.90;;;;;;5052451;28;20972;-65
2021/05/15 11:20:45;;;;;;;15.00;11.07;;;19.00;93.30;;;;;;5052577;28;20539;-65
2021/05/15 11:23:12;;;;;;;14.20;8.90;;;18.60;99.90;;;;;;5052200;28;20541;-66
2021/05/15 11:25:51;;;;;;;17.53;10.10;;;18.80;99.90;;;;;;5051894;28;20766;-68
2021/05/15 11:28:25;;;;;;;17.43;10.87;;;19.10;99.90;;;;;;5052406;28;20426;-67
2021/05/15 11:30:51;;;;;;;14.50;10.33;;;19.30;99.90;;;;;;5051404;28;20451;-66
2021/05/15 11:33:20;;;;;;;16.93;11.07;;;19.30;99.90;;;;;;5052827;28;20435;-67
2021/05/15 11:35:51;;;;;;;15.20;10.97;;;19.30;99.90;;;;;;5051955;28;20476;-67
2021/05/15 11:38:25;;;;;;;19.40;12.47;;;18.80;99.90;;;;;;5052474;28;20423;-65
2021/05/15 11:40:56;;;;;;;16.40;10.63;;;18.50;99.90;;;;;;5052167;28;20477;-66
2021/05/15 11:43:25;;;;;;;17.13;10.33;;;16.40;99.90;;;;;;5053218;28;20459;-65
2021/05/15 11:45:52;;;;;;;16.70;10.20;;;16.10;99.90;;;;;;5055646;28;20423;-65
2021/05/15 11:48:20;;;;;;;17.00;11.10;;;16.10;1.00;;;;;;5056263;28;20820;-66
2021/05/15 11:51:18;;;;;;;20.77;10.83;;;16.50;1.00;;;;;;5056217;28;20423;-65
2021/05/15 11:53:49;;;;;;;16.30;11.57;;;16.20;1.00;;;;;;5055818;28;20434;-65
2021/05/15 11:56:27;;;;;;;13.87;9.40;;;16.80;99.90;;;;;;5055928;28;20480;-64
2021/05/15 11:58:54;;;;;;;17.93;11.80;;;17.20;99.90;;;;;;5056143;28;20418;-65
2021/05/15 12:01:35;;;;;;;16.60;10.03;;;17.40;99.90;;;;;;5055833;28;20775;-65
2021/05/15 12:04:25;;;;;;;19.93;9.30;;;17.60;1.00;;;;;;5055244;28;20479;-68
2021/05/15 12:07:06;;;;;;;16.87;10.23;;;17.90;1.00;;;;;;5054851;28;20451;-69
2021/05/15 12:09:33;;;;;;;15.40;10.50;;;18.00;1.00;;;;;;5055644;28;20472;-68
2021/05/15 12:12:00;;;;;;;14.87;9.50;;;18.40;1.00;;;;;;5055574;28;20503;-67
2021/05/15 12:14:27;;;;;;;11.97;9.23;;;17.90;1.00;;;;;;5054974;28;20416;-67
2021/05/15 12:16:54;;;;;;;17.27;11.00;;;17.30;99.90;;;;;;5055226;28;20430;-68
2021/05/15 12:19:27;;;;;;;15.70;9.80;;;17.30;1.00;;;;;;5055801;28;20427;-68
2021/05/15 12:22:04;;;;;;;13.07;9.17;;;17.20;40.40;;;;;;5055438;28;20457;-67
2021/05/15 12:24:41;;;;;;;13.73;9.50;;;16.90;99.90;;;;;;5054897;28;20933;-64
2021/05/15 12:27:14;;;;;;;14.93;10.33;;;17.00;1.00;;;;;;5055555;28;20833;-65
2021/05/15 12:29:41;;;;;;;19.13;12.37;;;16.60;99.90;;;;;;5053140;28;20500;-65
2021/05/15 12:32:07;;;;;;;18.23;12.33;;;16.80;99.90;;;;;;5055333;28;20423;-65
2021/05/15 12:34:33;;;;;;;20.73;12.23;;;16.90;1.00;;;;;;5054765;28;20485;-64
2021/05/15 12:36:58;;;;;;;16.50;11.00;;;17.00;99.90;;;;;;5055365;28;20205;-67